createdAt,value
2019-03-29T00:02:16.387Z,7.70
2019-03-29T00:04:45.264Z,7.60
2019-03-29T00:07:13.484Z,7.40
2019-03-29T00:09:41.692Z,7.30
2019-03-29T00:12:09.927Z,7.10
2019-03-29T00:14:38.126Z,7.00
2019-03-29T00:17:06.345Z,6.80
2019-03-29T00:19:34.594Z,6.60
2019-03-29T00:22:02.840Z,6.50
2019-03-29T00:24:31.067Z,6.40
2019-03-29T00:26:59.273Z,6.40
2019-03-29T00:29:27.511Z,6.30
2019-03-29T00:31:55.731Z,6.30
2019-03-29T00:34:23.943Z,6.30
2019-03-29T00:36:52.266Z,6.30
2019-03-29T00:39:20.460Z,6.30
2019-03-29T00:41:48.697Z,6.40
2019-03-29T00:44:16.901Z,6.40
2019-03-29T00:46:45.100Z,6.40
2019-03-29T00:49:13.339Z,6.20
2019-03-29T00:51:41.532Z,6.00
2019-03-29T00:54:09.741Z,5.90
2019-03-29T00:56:38.970Z,5.80
2019-03-29T00:59:07.353Z,5.70
2019-03-29T01:01:35.583Z,5.70
2019-03-29T01:04:03.812Z,5.60
2019-03-29T01:06:32.025Z,5.60
2019-03-29T01:09:00.250Z,5.70
2019-03-29T01:11:28.478Z,5.50
2019-03-29T01:13:56.685Z,5.40
2019-03-29T01:16:24.888Z,5.30
2019-03-29T01:18:53.129Z,5.20
2019-03-29T01:21:21.335Z,5.20
2019-03-29T01:23:50.002Z,5.40
2019-03-29T01:26:18.349Z,5.50
2019-03-29T01:28:46.568Z,5.50
2019-03-29T01:31:15.135Z,5.60
2019-03-29T01:33:43.446Z,5.70
2019-03-29T01:36:11.661Z,5.60
2019-03-29T01:38:39.882Z,5.50
2019-03-29T01:41:08.101Z,5.50
2019-03-29T01:43:36.319Z,5.50
2019-03-29T01:46:04.542Z,5.60
2019-03-29T01:48:32.751Z,5.70
2019-03-29T01:51:01.314Z,5.90
2019-03-29T01:53:31.863Z,6.00
2019-03-29T01:56:00.079Z,6.20
2019-03-29T01:58:28.389Z,6.30
2019-03-29T02:00:56.579Z,6.40
2019-03-29T02:03:24.789Z,6.50
2019-03-29T02:05:53.225Z,6.60
2019-03-29T02:08:34.817Z,6.60
2019-03-29T02:10:52.015Z,6.60
2019-03-29T02:13:20.223Z,6.60
2019-03-29T02:15:48.784Z,6.60
2019-03-29T02:18:17.001Z,6.60
2019-03-29T02:20:45.206Z,6.70
2019-03-29T02:23:13.415Z,6.80
2019-03-29T02:25:42.449Z,6.70
2019-03-29T02:28:11.313Z,6.60
2019-03-29T02:30:39.515Z,6.40
2019-03-29T02:33:07.732Z,6.40
2019-03-29T02:35:35.943Z,6.30
2019-03-29T02:38:04.155Z,6.30
2019-03-29T02:40:32.380Z,6.30
2019-03-29T02:43:00.584Z,6.30
2019-03-29T02:45:30.458Z,6.40
2019-03-29T02:47:58.788Z,6.50
2019-03-29T02:50:26.998Z,6.60
2019-03-29T02:52:55.205Z,6.60
2019-03-29T02:55:23.425Z,6.70
2019-03-29T02:57:51.636Z,6.70
2019-03-29T03:00:19.877Z,6.80
2019-03-29T03:02:48.075Z,6.70
2019-03-29T03:05:16.279Z,6.70
2019-03-29T03:07:44.488Z,6.70
2019-03-29T03:10:12.709Z,6.80
2019-03-29T03:12:40.920Z,6.80
2019-03-29T03:15:09.131Z,6.80
2019-03-29T03:17:37.586Z,6.90
2019-03-29T03:20:08.519Z,6.90
2019-03-29T03:22:36.996Z,6.90
2019-03-29T03:25:06.561Z,6.90
2019-03-29T03:27:34.838Z,6.90
2019-03-29T03:30:04.594Z,6.80
2019-03-29T03:32:32.816Z,6.90
2019-03-29T03:35:01.057Z,6.80
2019-03-29T03:37:29.369Z,6.80
2019-03-29T03:39:57.587Z,6.70
2019-03-29T03:42:25.798Z,6.60
2019-03-29T03:44:54.023Z,6.60
2019-03-29T03:47:22.228Z,6.60
2019-03-29T03:49:50.448Z,6.60
2019-03-29T03:52:18.666Z,6.50
2019-03-29T03:54:46.878Z,6.50
2019-03-29T03:57:15.083Z,6.50
2019-03-29T03:59:43.571Z,6.50
2019-03-29T04:02:11.780Z,6.40
2019-03-29T04:04:40.081Z,6.40
2019-03-29T04:07:08.279Z,6.40
2019-03-29T04:09:49.354Z,6.40
2019-03-29T04:12:06.497Z,6.40
2019-03-29T04:14:34.705Z,6.40
2019-03-29T04:17:02.938Z,6.30
2019-03-29T04:19:31.213Z,6.20
2019-03-29T04:21:59.440Z,6.20
2019-03-29T04:24:28.941Z,6.20
2019-03-29T04:26:57.157Z,6.20
2019-03-29T04:29:25.356Z,6.40
2019-03-29T04:31:53.573Z,6.40
2019-03-29T04:34:21.842Z,6.40
2019-03-29T04:36:50.036Z,6.30
2019-03-29T04:39:18.241Z,6.40
2019-03-29T04:41:46.468Z,6.40
2019-03-29T04:44:14.692Z,6.30
2019-03-29T04:46:42.901Z,6.20
2019-03-29T04:49:11.107Z,6.20
2019-03-29T04:51:39.323Z,6.20
2019-03-29T04:54:07.553Z,6.30
2019-03-29T04:56:35.761Z,6.40
2019-03-29T04:59:03.972Z,6.30
2019-03-29T05:01:32.196Z,6.30
2019-03-29T05:04:00.441Z,6.40
2019-03-29T05:06:28.673Z,6.40
2019-03-29T05:08:56.891Z,6.30
2019-03-29T05:11:25.121Z,6.30
2019-03-29T05:13:53.307Z,6.40
2019-03-29T05:16:21.530Z,6.40
2019-03-29T05:18:49.741Z,6.40
2019-03-29T05:21:17.983Z,6.40
2019-03-29T05:23:46.176Z,6.30
2019-03-29T05:26:14.426Z,6.30
2019-03-29T05:28:42.625Z,6.30
2019-03-29T05:31:10.843Z,6.40
2019-03-29T05:33:39.060Z,6.40
2019-03-29T05:36:07.264Z,6.20
2019-03-29T05:38:35.480Z,6.20
2019-03-29T05:41:03.687Z,6.30
2019-03-29T05:43:31.899Z,6.30
2019-03-29T05:46:00.108Z,6.20
2019-03-29T05:48:28.375Z,6.20
2019-03-29T05:50:56.617Z,6.20
2019-03-29T05:53:24.896Z,6.10
2019-03-29T05:55:53.100Z,6.10
2019-03-29T05:58:21.333Z,6.20
2019-03-29T06:00:49.567Z,6.30
2019-03-29T06:03:17.783Z,6.40
2019-03-29T06:05:46.020Z,6.50
2019-03-29T06:08:14.224Z,6.50
2019-03-29T06:10:48.800Z,6.70
2019-03-29T06:13:12.422Z,6.80
2019-03-29T06:15:40.935Z,7.00
2019-03-29T06:18:09.149Z,7.30
2019-03-29T06:20:37.452Z,7.40
2019-03-29T06:23:05.664Z,7.90
2019-03-29T06:25:33.888Z,8.20
2019-03-29T06:28:02.177Z,8.20
2019-03-29T06:30:31.381Z,8.20
2019-03-29T06:32:59.783Z,8.20
2019-03-29T06:35:29.390Z,8.30
2019-03-29T06:37:57.628Z,8.50
2019-03-29T06:40:25.915Z,8.80
2019-03-29T06:42:54.144Z,9.10
2019-03-29T06:45:22.371Z,9.20
2019-03-29T06:47:50.619Z,9.50
2019-03-29T06:50:18.805Z,9.80
2019-03-29T06:52:47.008Z,10.70
2019-03-29T06:55:15.232Z,11.30
2019-03-29T06:57:43.441Z,12.20
2019-03-29T07:00:11.666Z,13.40
2019-03-29T07:02:39.892Z,14.20
2019-03-29T07:05:08.136Z,15.20
2019-03-29T07:07:36.354Z,16.30
2019-03-29T07:10:06.052Z,17.20
2019-03-29T07:12:34.259Z,17.80
2019-03-29T07:15:02.530Z,18.00
2019-03-29T07:17:30.835Z,18.80
2019-03-29T07:19:59.052Z,18.70
2019-03-29T07:22:27.265Z,19.00
2019-03-29T07:24:55.480Z,18.80
2019-03-29T07:27:23.699Z,19.10
2019-03-29T07:29:51.901Z,19.50
2019-03-29T07:32:20.153Z,19.90
2019-03-29T07:34:49.306Z,21.30
2019-03-29T07:37:17.754Z,21.60
2019-03-29T07:39:45.953Z,22.10
2019-03-29T07:42:14.168Z,23.00
2019-03-29T07:44:42.376Z,23.30
2019-03-29T07:47:10.600Z,23.40
2019-03-29T07:49:38.804Z,24.10
2019-03-29T07:52:07.032Z,24.20
2019-03-29T07:54:35.244Z,24.00
2019-03-29T07:57:03.620Z,24.60
2019-03-29T07:59:31.819Z,23.80
2019-03-29T08:02:00.038Z,23.50
2019-03-29T08:04:28.265Z,24.30
2019-03-29T08:06:56.472Z,24.30
2019-03-29T08:09:24.685Z,23.70
2019-03-29T08:11:52.891Z,23.30
2019-03-29T08:14:21.412Z,23.40
2019-03-29T08:16:49.616Z,23.80
2019-03-29T08:19:17.823Z,24.70
2019-03-29T08:21:46.025Z,24.50
2019-03-29T08:24:14.244Z,24.40
2019-03-29T08:26:42.448Z,24.60
2019-03-29T08:29:10.700Z,25.20
2019-03-29T08:31:38.948Z,25.00
2019-03-29T08:34:07.168Z,24.40
2019-03-29T08:36:35.451Z,24.40
2019-03-29T08:39:05.155Z,24.80
2019-03-29T08:41:33.372Z,24.70
2019-03-29T08:44:01.602Z,24.50
2019-03-29T08:46:29.804Z,25.70
2019-03-29T08:48:58.027Z,26.40
2019-03-29T08:51:26.228Z,25.80
2019-03-29T08:53:54.447Z,25.20
2019-03-29T08:56:22.664Z,25.60
2019-03-29T08:58:50.872Z,26.10
2019-03-29T09:01:19.770Z,25.40
2019-03-29T09:04:02.703Z,24.80
2019-03-29T09:06:18.175Z,25.40
2019-03-29T09:08:46.383Z,25.90
2019-03-29T09:11:14.583Z,25.50
2019-03-29T09:13:42.790Z,23.90
2019-03-29T09:16:11.055Z,24.20
2019-03-29T09:18:39.295Z,23.70
2019-03-29T09:21:07.508Z,23.70
2019-03-29T09:23:35.718Z,25.10
2019-03-29T09:26:03.929Z,25.30
2019-03-29T09:28:33.072Z,25.00
2019-03-29T09:31:01.336Z,25.40
2019-03-29T09:33:29.559Z,24.00
2019-03-29T09:35:57.775Z,24.30
2019-03-29T09:38:26.132Z,24.70
2019-03-29T09:40:58.898Z,25.90
2019-03-29T09:43:26.591Z,25.10
2019-03-29T09:45:53.511Z,25.10
2019-03-29T09:48:21.734Z,25.80
2019-03-29T09:50:50.932Z,25.20
2019-03-29T09:53:19.536Z,24.80
2019-03-29T09:55:47.835Z,22.70
2019-03-29T09:58:16.699Z,22.20
2019-03-29T10:00:45.307Z,21.60
2019-03-29T10:03:13.583Z,21.70
2019-03-29T10:05:41.822Z,21.10
2019-03-29T10:08:10.049Z,20.50
2019-03-29T10:10:38.257Z,20.00
2019-03-29T10:13:06.550Z,20.00
2019-03-29T10:15:34.763Z,19.80
2019-03-29T10:18:02.978Z,19.10
2019-03-29T10:20:31.176Z,19.30
2019-03-29T10:22:59.397Z,19.70
2019-03-29T10:25:27.603Z,19.50
2019-03-29T10:27:55.814Z,19.90
2019-03-29T10:30:30.199Z,20.30
2019-03-29T10:32:58.434Z,20.00
2019-03-29T10:35:26.649Z,21.60
2019-03-29T10:37:54.855Z,23.60
2019-03-29T10:40:23.084Z,25.00
2019-03-29T10:42:57.489Z,25.80
2019-03-29T10:45:21.220Z,25.10
2019-03-29T10:47:49.424Z,25.00
2019-03-29T10:50:17.644Z,23.80
2019-03-29T10:52:45.857Z,22.30
2019-03-29T10:55:14.064Z,22.10
2019-03-29T10:57:42.277Z,22.00
2019-03-29T11:00:12.770Z,22.30
2019-03-29T11:02:40.956Z,22.40
2019-03-29T11:05:09.156Z,21.60
2019-03-29T11:07:37.364Z,21.30
2019-03-29T11:10:06.835Z,23.00
2019-03-29T11:12:35.091Z,23.60
2019-03-29T11:15:06.657Z,23.90
2019-03-29T11:17:34.621Z,24.50
2019-03-29T11:20:03.105Z,25.00
2019-03-29T11:22:31.326Z,23.50
2019-03-29T11:24:59.543Z,23.70
2019-03-29T11:27:27.736Z,24.70
2019-03-29T11:29:55.991Z,24.90
2019-03-29T11:32:24.189Z,24.70
2019-03-29T11:34:52.404Z,25.50
2019-03-29T11:37:20.615Z,25.10
2019-03-29T11:39:48.820Z,25.10
2019-03-29T11:42:17.027Z,24.70
2019-03-29T11:44:45.253Z,24.70
2019-03-29T11:47:13.452Z,25.30
2019-03-29T11:49:41.687Z,24.80
2019-03-29T11:52:09.889Z,25.40
2019-03-29T11:54:38.127Z,25.70
2019-03-29T11:57:06.337Z,25.70
2019-03-29T11:59:34.536Z,25.40
2019-03-29T12:02:02.753Z,26.00
2019-03-29T12:04:30.956Z,26.50
2019-03-29T12:06:59.178Z,26.20
2019-03-29T12:09:27.389Z,26.50
2019-03-29T12:11:55.627Z,26.60
2019-03-29T12:14:23.828Z,26.20
2019-03-29T12:16:52.048Z,26.40
2019-03-29T12:19:20.251Z,25.40
2019-03-29T12:21:48.464Z,24.20
2019-03-29T12:24:16.683Z,24.40
2019-03-29T12:26:44.883Z,25.40
2019-03-29T12:29:13.108Z,25.20
2019-03-29T12:31:41.312Z,26.40
2019-03-29T12:34:09.536Z,26.20
2019-03-29T12:36:37.732Z,26.70
2019-03-29T12:39:07.019Z,26.10
2019-03-29T12:41:35.226Z,25.70
2019-03-29T12:44:03.578Z,25.10
2019-03-29T12:46:32.411Z,25.00
2019-03-29T12:49:00.821Z,24.60
2019-03-29T12:51:29.024Z,25.30
2019-03-29T12:53:57.239Z,25.50
2019-03-29T12:56:25.468Z,24.70
2019-03-29T12:58:53.670Z,25.30
2019-03-29T13:01:21.953Z,26.10
2019-03-29T13:03:50.162Z,26.90
2019-03-29T13:06:18.368Z,26.50
2019-03-29T13:08:46.586Z,25.80
2019-03-29T13:11:14.793Z,26.20
2019-03-29T13:13:42.999Z,26.20
2019-03-29T13:16:11.220Z,26.60
2019-03-29T13:18:39.425Z,26.10
2019-03-29T13:21:07.647Z,25.60
2019-03-29T13:23:35.849Z,25.40
2019-03-29T13:26:04.056Z,26.00
2019-03-29T13:28:32.274Z,26.20
2019-03-29T13:31:00.480Z,27.60
2019-03-29T13:33:41.840Z,27.80
2019-03-29T13:36:10.044Z,27.90
2019-03-29T13:38:38.265Z,28.60
2019-03-29T13:41:07.117Z,27.40
2019-03-29T13:43:35.573Z,27.10
2019-03-29T13:46:03.784Z,27.60
2019-03-29T13:48:31.988Z,27.40
2019-03-29T13:51:00.236Z,27.80
2019-03-29T13:53:28.440Z,28.10
2019-03-29T13:55:56.668Z,28.10
2019-03-29T13:58:24.879Z,29.10
2019-03-29T14:00:53.088Z,28.20
2019-03-29T14:03:21.308Z,28.50
2019-03-29T14:05:49.587Z,26.30
2019-03-29T14:08:17.793Z,24.80
2019-03-29T14:10:46.102Z,25.10
2019-03-29T14:13:14.378Z,25.10
2019-03-29T14:15:42.586Z,24.60
2019-03-29T14:18:10.784Z,25.40
2019-03-29T14:20:38.995Z,25.90
2019-03-29T14:23:07.212Z,24.70
2019-03-29T14:25:35.426Z,24.30
2019-03-29T14:28:03.628Z,24.80
2019-03-29T14:30:31.837Z,24.30
2019-03-29T14:33:00.056Z,24.70
2019-03-29T14:35:28.597Z,24.30
2019-03-29T14:37:56.891Z,24.50
2019-03-29T14:40:25.583Z,24.00
2019-03-29T14:42:53.792Z,24.70
2019-03-29T14:45:22.004Z,24.80
2019-03-29T14:47:50.204Z,25.40
2019-03-29T14:50:18.483Z,24.50
2019-03-29T14:52:46.684Z,24.50
2019-03-29T14:55:14.976Z,24.60
2019-03-29T14:57:43.199Z,24.40
2019-03-29T15:00:12.574Z,25.30
2019-03-29T15:02:40.783Z,25.60
2019-03-29T15:05:09.003Z,25.80
2019-03-29T15:07:37.212Z,25.70
2019-03-29T15:10:06.662Z,25.50
2019-03-29T15:12:34.904Z,25.60
2019-03-29T15:15:06.297Z,25.90
2019-03-29T15:17:34.576Z,26.30
2019-03-29T15:20:03.245Z,26.60
2019-03-29T15:22:33.138Z,26.40
2019-03-29T15:25:00.864Z,25.70
2019-03-29T15:27:29.146Z,25.30
2019-03-29T15:29:57.343Z,24.40
2019-03-29T15:32:25.569Z,23.80
2019-03-29T15:34:53.782Z,22.50
2019-03-29T15:37:21.996Z,23.10
2019-03-29T15:39:50.199Z,23.40
2019-03-29T15:42:20.599Z,23.40
2019-03-29T15:44:48.376Z,23.30
2019-03-29T15:47:16.580Z,22.60
2019-03-29T15:49:55.303Z,22.60
2019-03-29T15:52:14.735Z,22.60
2019-03-29T15:54:42.972Z,22.40
2019-03-29T15:57:11.220Z,22.30
2019-03-29T15:59:39.440Z,22.60
2019-03-29T16:02:07.641Z,22.90
2019-03-29T16:04:35.861Z,22.50
2019-03-29T16:07:04.391Z,22.50
2019-03-29T16:09:32.589Z,22.40
2019-03-29T16:12:00.805Z,22.40
2019-03-29T16:14:29.060Z,21.90
2019-03-29T16:16:57.243Z,21.80
2019-03-29T16:19:25.443Z,21.60
2019-03-29T16:21:53.662Z,21.10
2019-03-29T16:24:21.870Z,20.90
2019-03-29T16:26:50.084Z,20.90
2019-03-29T16:29:18.296Z,20.10
2019-03-29T16:31:46.492Z,19.70
2019-03-29T16:34:14.724Z,19.20
2019-03-29T16:36:42.943Z,18.60
2019-03-29T16:39:11.139Z,18.40
2019-03-29T16:41:39.358Z,18.20
2019-03-29T16:44:07.580Z,18.00
2019-03-29T16:46:35.804Z,17.90
2019-03-29T16:49:04.001Z,17.80
2019-03-29T16:51:32.229Z,17.70
2019-03-29T16:54:00.433Z,17.50
2019-03-29T16:56:28.735Z,17.20
2019-03-29T16:58:56.987Z,17.00
2019-03-29T17:01:25.195Z,16.90
2019-03-29T17:03:53.404Z,16.80
2019-03-29T17:06:21.628Z,16.70
2019-03-29T17:08:49.824Z,16.70
2019-03-29T17:11:18.033Z,16.50
2019-03-29T17:13:46.248Z,16.40
2019-03-29T17:16:14.455Z,16.30
2019-03-29T17:18:42.671Z,16.20
2019-03-29T17:21:11.027Z,16.10
2019-03-29T17:23:39.408Z,15.90
2019-03-29T17:26:07.615Z,15.80
2019-03-29T17:28:35.869Z,15.70
2019-03-29T17:31:05.692Z,15.60
2019-03-29T17:33:33.915Z,15.50
2019-03-29T17:36:02.127Z,15.40
2019-03-29T17:38:30.343Z,15.30
2019-03-29T17:40:58.549Z,15.20
2019-03-29T17:43:26.761Z,15.00
2019-03-29T17:45:54.978Z,15.00
2019-03-29T17:48:23.205Z,14.90
2019-03-29T17:50:51.424Z,14.70
2019-03-29T17:53:19.648Z,14.60
2019-03-29T17:55:47.874Z,14.50
2019-03-29T17:58:16.073Z,14.40
2019-03-29T18:00:44.294Z,14.30
2019-03-29T18:03:12.496Z,14.10
2019-03-29T18:05:40.713Z,13.90
2019-03-29T18:08:08.924Z,13.70
2019-03-29T18:10:37.148Z,13.50
2019-03-29T18:13:05.355Z,13.40
2019-03-29T18:15:33.575Z,13.30
2019-03-29T18:18:01.803Z,13.10
2019-03-29T18:20:30.003Z,13.00
2019-03-29T18:22:58.236Z,12.80
2019-03-29T18:25:26.446Z,12.60
2019-03-29T18:27:54.659Z,12.50
2019-03-29T18:30:39.342Z,12.30
2019-03-29T18:33:07.819Z,12.20
2019-03-29T18:35:36.099Z,12.10
2019-03-29T18:38:04.323Z,12.00
2019-03-29T18:40:32.812Z,11.90
2019-03-29T18:43:01.041Z,11.80
2019-03-29T18:45:29.243Z,11.70
2019-03-29T18:47:57.453Z,11.60
2019-03-29T18:50:25.813Z,11.50
2019-03-29T18:52:54.016Z,11.40
2019-03-29T18:55:22.236Z,11.30
2019-03-29T18:57:50.474Z,11.30
2019-03-29T19:00:21.929Z,11.20
2019-03-29T19:02:50.176Z,11.00
2019-03-29T19:05:23.843Z,10.90
2019-03-29T19:07:52.072Z,10.80
2019-03-29T19:10:20.323Z,10.60
2019-03-29T19:12:48.536Z,10.60
2019-03-29T19:15:16.791Z,10.50
2019-03-29T19:17:44.996Z,10.50
2019-03-29T19:20:26.549Z,10.40
2019-03-29T19:22:43.161Z,10.30
2019-03-29T19:25:11.368Z,10.20
2019-03-29T19:27:40.160Z,10.10
2019-03-29T19:30:11.280Z,10.10
2019-03-29T19:32:39.838Z,9.90
2019-03-29T19:35:08.091Z,9.90
2019-03-29T19:37:37.160Z,9.80
2019-03-29T19:40:07.015Z,9.80
2019-03-29T19:42:35.226Z,9.70
2019-03-29T19:45:03.806Z,9.60
2019-03-29T19:47:32.002Z,9.50
2019-03-29T19:50:00.402Z,9.50
2019-03-29T19:52:28.751Z,9.20
2019-03-29T19:54:56.949Z,9.00
2019-03-29T19:57:25.198Z,9.00
2019-03-29T19:59:53.457Z,9.00
2019-03-29T20:02:21.677Z,8.90
2019-03-29T20:04:49.880Z,8.80
2019-03-29T20:07:20.382Z,8.80
2019-03-29T20:09:48.046Z,8.70
2019-03-29T20:12:16.237Z,8.70
2019-03-29T20:14:44.448Z,8.60
2019-03-29T20:17:26.674Z,8.50
2019-03-29T20:19:42.602Z,8.40
2019-03-29T20:22:10.796Z,8.40
2019-03-29T20:24:39.014Z,8.30
2019-03-29T20:27:07.221Z,8.30
2019-03-29T20:29:35.441Z,8.20
2019-03-29T20:32:03.643Z,8.20
2019-03-29T20:34:31.847Z,8.20
2019-03-29T20:37:00.056Z,8.10
2019-03-29T20:39:28.324Z,8.00
2019-03-29T20:41:56.595Z,7.90
2019-03-29T20:44:24.820Z,7.80
2019-03-29T20:46:53.015Z,7.80
2019-03-29T20:49:21.228Z,7.80
2019-03-29T20:51:49.441Z,7.60
2019-03-29T20:54:17.635Z,7.50
2019-03-29T20:56:45.860Z,7.50
2019-03-29T20:59:14.111Z,7.50
2019-03-29T21:01:42.372Z,7.40
2019-03-29T21:04:10.606Z,7.50
2019-03-29T21:06:38.808Z,7.50
2019-03-29T21:09:07.570Z,7.50
2019-03-29T21:11:35.819Z,7.60
2019-03-29T21:14:04.044Z,7.40
2019-03-29T21:16:32.276Z,7.30
2019-03-29T21:19:00.495Z,7.20
2019-03-29T21:21:28.759Z,7.10
2019-03-29T21:23:56.979Z,7.10
2019-03-29T21:26:25.208Z,7.00
2019-03-29T21:28:53.462Z,7.10
2019-03-29T21:31:22.707Z,7.00
2019-03-29T21:33:51.092Z,6.90
2019-03-29T21:36:19.305Z,6.90
2019-03-29T21:38:47.762Z,6.80
2019-03-29T21:41:15.971Z,6.80
2019-03-29T21:43:44.181Z,6.70
2019-03-29T21:46:12.391Z,6.70
2019-03-29T21:48:40.607Z,6.70
2019-03-29T21:51:08.868Z,6.70
2019-03-29T21:53:38.791Z,6.60
2019-03-29T21:56:06.995Z,6.60
2019-03-29T21:58:35.248Z,6.50
2019-03-29T22:01:03.464Z,6.40
2019-03-29T22:03:31.681Z,6.40
2019-03-29T22:05:59.893Z,6.40
2019-03-29T22:08:28.112Z,6.40
2019-03-29T22:10:56.579Z,6.30
2019-03-29T22:13:24.792Z,6.40
2019-03-29T22:15:53.006Z,6.20
2019-03-29T22:18:21.266Z,6.10
2019-03-29T22:20:49.504Z,6.10
2019-03-29T22:23:17.752Z,6.10
2019-03-29T22:25:45.980Z,6.00
2019-03-29T22:28:14.315Z,5.90
2019-03-29T22:30:42.570Z,5.90
2019-03-29T22:33:10.792Z,5.90
2019-03-29T22:35:38.996Z,5.80
2019-03-29T22:38:07.211Z,5.80
2019-03-29T22:40:35.418Z,5.70
2019-03-29T22:43:03.648Z,5.60
2019-03-29T22:45:31.853Z,5.50
2019-03-29T22:48:00.047Z,5.50
2019-03-29T22:50:28.260Z,5.40
2019-03-29T22:52:56.480Z,5.30
2019-03-29T22:55:24.692Z,5.30
2019-03-29T22:57:52.909Z,5.30
2019-03-29T23:00:29.004Z,5.30
2019-03-29T23:02:57.219Z,5.30
2019-03-29T23:05:25.439Z,5.30
2019-03-29T23:07:53.661Z,5.20
2019-03-29T23:10:21.859Z,5.20
2019-03-29T23:12:50.057Z,5.20
2019-03-29T23:15:18.264Z,5.20
2019-03-29T23:17:46.465Z,5.30
2019-03-29T23:20:14.709Z,5.20
2019-03-29T23:22:42.911Z,5.20
2019-03-29T23:25:11.108Z,5.10
2019-03-29T23:27:39.320Z,5.10
2019-03-29T23:30:07.544Z,5.00
2019-03-29T23:32:35.762Z,4.90
2019-03-29T23:35:06.083Z,4.90
2019-03-29T23:37:34.317Z,4.80
2019-03-29T23:40:02.617Z,4.70
2019-03-29T23:42:30.828Z,4.60
2019-03-29T23:44:59.051Z,4.60
2019-03-29T23:47:27.264Z,4.50
2019-03-29T23:49:55.470Z,4.50
2019-03-29T23:52:23.672Z,4.50
2019-03-29T23:54:51.900Z,4.50
2019-03-29T23:57:20.113Z,4.40
2019-03-29T23:59:48.321Z,4.30
